Time;durP1;ratioP1;P1;durP2;ratioP2;P2;SDS_P1;SDS_P2;PMS_P1;PMS_P2;Temp;Humidity;BMP_temperature;BMP_pressure;BME280_temperature;BME280_humidity;BME280_pressure;Samples;Min_cycle;Max_cycle;Signal;HPM_P1;HPM_P2
2021/05/19 00:01:52;;;;;;;4.40;2.63;;;9.00;99.90;;;;;;5072645;28;21076;-66
2021/05/19 00:04:19;;;;;;;3.60;2.80;;;9.00;99.90;;;;;;5072796;28;20538;-66
2021/05/19 00:06:45;;;;;;;3.87;2.20;;;9.00;99.90;;;;;;5072288;28;20538;-65
2021/05/19 00:09:15;;;;;;;4.60;2.50;;;8.90;99.90;;;;;;5072417;28;20976;-66
2021/05/19 00:11:45;;;;;;;3.90;2.87;;;8.90;99.90;;;;;;5071984;28;20443;-66
2021/05/19 00:14:13;;;;;;;4.37;2.80;;;8.90;99.90;;;;;;5072590;28;20518;-66
2021/05/19 00:16:39;;;;;;;3.20;2.90;;;8.90;99.90;;;;;;5072178;28;20554;-65
2021/05/19 00:19:06;;;;;;;5.77;2.60;;;8.80;99.90;;;;;;5072452;28;20475;-66
2021/05/19 00:21:32;;;;;;;3.70;2.90;;;8.90;99.90;;;;;;5072095;28;20449;-66
2021/05/19 00:23:59;;;;;;;5.67;3.33;;;8.80;99.90;;;;;;5072249;28;20526;-65
2021/05/19 00:26:25;;;;;;;6.57;2.93;;;8.90;99.90;;;;;;5072141;28;20449;-66
2021/05/19 00:28:55;;;;;;;3.67;2.90;;;9.10;99.90;;;;;;5072220;28;20920;-66
2021/05/19 00:31:23;;;;;;;6.20;3.20;;;9.10;99.90;;;;;;5072286;28;20443;-66
2021/05/19 00:33:50;;;;;;;3.90;3.33;;;9.20;99.90;;;;;;5071836;28;20970;-66
2021/05/19 00:36:17;;;;;;;5.13;2.90;;;9.30;99.90;;;;;;5071751;28;20484;-65
2021/05/19 00:38:43;;;;;;;5.17;3.17;;;9.40;99.90;;;;;;5071454;28;20466;-66
2021/05/19 00:41:12;;;;;;;4.00;3.07;;;9.40;99.90;;;;;;5071620;28;20468;-66
2021/05/19 00:43:39;;;;;;;3.37;2.37;;;9.50;99.90;;;;;;5071776;28;20439;-66
2021/05/19 00:46:07;;;;;;;3.93;3.07;;;9.50;99.90;;;;;;5071728;28;20446;-65
2021/05/19 00:48:34;;;;;;;5.40;3.27;;;9.50;99.90;;;;;;5071410;28;20443;-66
2021/05/19 00:51:00;;;;;;;3.37;2.40;;;9.50;99.90;;;;;;5071747;28;20861;-66
2021/05/19 00:53:28;;;;;;;3.30;2.97;;;9.60;99.90;;;;;;5071351;28;20435;-66
2021/05/19 00:55:54;;;;;;;3.37;2.53;;;9.60;99.90;;;;;;5071581;28;21134;-65
2021/05/19 00:58:21;;;;;;;3.47;2.40;;;9.60;99.90;;;;;;5071216;28;20475;-65
2021/05/19 01:00:47;;;;;;;4.70;2.50;;;9.60;99.90;;;;;;5071424;28;20542;-65
2021/05/19 01:03:14;;;;;;;5.57;3.03;;;9.60;99.90;;;;;;5071663;28;20451;-66
2021/05/19 01:05:44;;;;;;;3.60;2.77;;;9.60;99.90;;;;;;5071608;28;20442;-66
2021/05/19 01:10:55;;;;;;;4.40;3.30;;;9.70;99.90;;;;;;5071720;28;21039;-65
2021/05/19 01:13:22;;;;;;;3.73;2.50;;;9.70;99.90;;;;;;5071771;28;20864;-66
2021/05/19 01:15:49;;;;;;;3.70;2.60;;;9.70;99.90;;;;;;5071601;28;20445;-66
2021/05/19 01:18:17;;;;;;;3.30;2.70;;;9.70;99.90;;;;;;5070616;28;20569;-65
2021/05/19 01:20:43;;;;;;;3.57;2.40;;;9.70;99.90;;;;;;5070856;28;20469;-66
2021/05/19 01:23:10;;;;;;;4.60;2.77;;;9.70;99.90;;;;;;5070650;28;20858;-66
2021/05/19 01:25:38;;;;;;;3.30;2.20;;;9.70;99.90;;;;;;5071043;28;20541;-66
2021/05/19 01:28:05;;;;;;;5.20;2.90;;;9.70;99.90;;;;;;5070588;28;20873;-66
2021/05/19 01:30:33;;;;;;;2.90;2.30;;;9.80;99.90;;;;;;5070747;28;21056;-66
2021/05/19 01:32:59;;;;;;;4.67;3.00;;;9.80;99.90;;;;;;5070656;28;21134;-67
2021/05/19 01:35:26;;;;;;;3.10;2.50;;;9.80;99.90;;;;;;5070792;28;20443;-66
2021/05/19 01:37:52;;;;;;;3.53;2.77;;;9.80;99.90;;;;;;5070339;28;20455;-65
2021/05/19 01:40:22;;;;;;;4.37;3.07;;;9.80;99.90;;;;;;5070896;28;20463;-66
2021/05/19 01:42:50;;;;;;;4.37;2.80;;;9.80;99.90;;;;;;5070512;28;20772;-66
2021/05/19 01:45:18;;;;;;;3.93;2.77;;;9.80;99.90;;;;;;5070577;28;20534;-66
2021/05/19 01:47:47;;;;;;;3.70;2.40;;;9.90;99.90;;;;;;5070204;28;20447;-66
2021/05/19 01:50:16;;;;;;;3.87;2.70;;;9.80;99.90;;;;;;5070409;28;20455;-66
2021/05/19 01:52:43;;;;;;;3.67;2.20;;;9.90;99.90;;;;;;5070683;28;20894;-65
2021/05/19 01:55:13;;;;;;;3.30;2.53;;;9.90;99.90;;;;;;5070527;28;20886;-66
2021/05/19 01:57:42;;;;;;;2.83;2.53;;;9.80;99.90;;;;;;5070226;28;20445;-65
2021/05/19 02:00:10;;;;;;;2.87;2.40;;;9.80;99.90;;;;;;5069992;28;20483;-66
2021/05/19 02:02:37;;;;;;;3.17;2.60;;;9.80;99.90;;;;;;5070361;28;20443;-66
2021/05/19 02:05:04;;;;;;;4.07;3.03;;;9.70;99.90;;;;;;5070289;28;20496;-66
2021/05/19 02:07:31;;;;;;;4.27;3.00;;;9.70;99.90;;;;;;5069903;28;20439;-65
2021/05/19 02:09:57;;;;;;;3.80;3.20;;;9.80;99.90;;;;;;5069968;28;20465;-66
2021/05/19 02:12:23;;;;;;;4.77;3.00;;;9.80;99.90;;;;;;5070081;28;20538;-65
2021/05/19 02:14:50;;;;;;;5.07;3.20;;;9.70;99.90;;;;;;5070184;28;20644;-65
2021/05/19 02:17:17;;;;;;;4.00;3.40;;;9.70;99.90;;;;;;5069912;28;20461;-65
2021/05/19 02:19:43;;;;;;;4.20;2.57;;;9.60;99.90;;;;;;5070126;28;20483;-65
2021/05/19 02:22:10;;;;;;;5.63;3.80;;;9.50;99.90;;;;;;5070507;28;20869;-66
2021/05/19 02:24:36;;;;;;;4.00;2.63;;;9.50;99.90;;;;;;5070083;28;20525;-66
2021/05/19 02:27:02;;;;;;;3.70;2.87;;;9.50;99.90;;;;;;5069674;28;20449;-65
2021/05/19 02:29:29;;;;;;;3.63;3.03;;;9.50;99.90;;;;;;5069751;28;20487;-66
2021/05/19 02:31:56;;;;;;;4.23;2.87;;;9.50;99.90;;;;;;5070256;28;20801;-65
2021/05/19 02:34:22;;;;;;;3.10;2.40;;;9.50;99.90;;;;;;5072659;28;20449;-65
2021/05/19 02:36:49;;;;;;;4.83;2.80;;;9.50;99.90;;;;;;5073835;28;20493;-66
2021/05/19 02:39:15;;;;;;;4.33;2.67;;;9.50;99.90;;;;;;5073867;28;20489;-65
2021/05/19 02:41:41;;;;;;;2.93;2.50;;;9.50;99.90;;;;;;5073941;28;20818;-66
2021/05/19 02:44:08;;;;;;;4.00;2.53;;;9.50;99.90;;;;;;5074148;28;20491;-65
2021/05/19 02:46:36;;;;;;;5.23;3.33;;;9.50;99.90;;;;;;5074116;28;20439;-66
2021/05/19 02:49:03;;;;;;;4.17;3.33;;;9.60;99.90;;;;;;5074068;28;20498;-65
2021/05/19 02:51:31;;;;;;;4.93;3.03;;;9.60;99.90;;;;;;5074154;28;20443;-65
2021/05/19 02:53:58;;;;;;;3.37;2.90;;;9.60;99.90;;;;;;5074172;28;20447;-65
2021/05/19 02:56:24;;;;;;;5.47;2.73;;;9.60;99.90;;;;;;5073654;28;20530;-66
2021/05/19 02:58:51;;;;;;;4.23;2.50;;;9.60;99.90;;;;;;5073753;28;20480;-66
2021/05/19 03:01:18;;;;;;;3.07;2.50;;;9.60;99.90;;;;;;5073704;28;20534;-66
2021/05/19 03:03:44;;;;;;;3.03;2.57;;;9.60;99.90;;;;;;5073990;28;20472;-65
2021/05/19 03:06:12;;;;;;;6.10;3.00;;;9.60;99.90;;;;;;5073703;28;20449;-65
2021/05/19 03:08:39;;;;;;;4.20;3.03;;;9.70;99.90;;;;;;5073442;28;20924;-64
2021/05/19 03:11:07;;;;;;;4.57;3.17;;;9.60;99.90;;;;;;5073762;28;20449;-66
2021/05/19 03:13:34;;;;;;;5.00;2.83;;;9.50;99.90;;;;;;5073450;28;20443;-66
2021/05/19 03:16:00;;;;;;;3.90;2.60;;;9.50;99.90;;;;;;5073146;28;20525;-65
2021/05/19 03:18:27;;;;;;;3.80;2.67;;;9.50;99.90;;;;;;5072712;28;20470;-66
2021/05/19 03:20:54;;;;;;;4.30;3.37;;;9.50;99.90;;;;;;5073057;28;20465;-66
2021/05/19 03:23:21;;;;;;;4.87;3.40;;;9.50;99.90;;;;;;5072993;28;20446;-65
2021/05/19 03:25:47;;;;;;;4.20;3.30;;;9.60;99.90;;;;;;5072719;28;20458;-66
2021/05/19 03:28:14;;;;;;;4.03;3.27;;;9.50;99.90;;;;;;5072771;28;20447;-66
2021/05/19 03:30:40;;;;;;;4.30;3.10;;;9.60;99.90;;;;;;5072543;28;20466;-66
2021/05/19 03:33:06;;;;;;;4.57;2.73;;;9.60;99.90;;;;;;5072377;28;20525;-66
2021/05/19 03:35:33;;;;;;;4.50;2.90;;;9.60;99.90;;;;;;5072942;28;20443;-66
2021/05/19 03:37:59;;;;;;;3.73;2.80;;;9.60;99.90;;;;;;5072981;28;20447;-65
2021/05/19 03:40:27;;;;;;;5.27;3.27;;;9.60;99.90;;;;;;5072825;28;20467;-65
2021/05/19 03:42:53;;;;;;;3.20;2.90;;;9.70;99.90;;;;;;5072515;28;21016;-65
2021/05/19 03:45:21;;;;;;;5.70;3.30;;;9.70;99.90;;;;;;5072027;28;20826;-66
2021/05/19 03:47:50;;;;;;;5.50;3.50;;;9.60;99.90;;;;;;5072386;28;20450;-66
2021/05/19 03:50:17;;;;;;;3.40;2.80;;;9.60;99.90;;;;;;5072751;28;20478;-66
2021/05/19 03:52:44;;;;;;;4.70;2.97;;;9.60;99.90;;;;;;5072754;28;20951;-68
2021/05/19 03:55:12;;;;;;;3.50;3.20;;;9.60;99.90;;;;;;5072819;28;20439;-66
2021/05/19 03:57:39;;;;;;;3.50;3.10;;;9.60;99.90;;;;;;5072278;28;21011;-66
2021/05/19 04:00:08;;;;;;;7.33;3.40;;;9.60;99.90;;;;;;5072452;28;20565;-66
2021/05/19 04:02:35;;;;;;;5.33;3.70;;;9.60;99.90;;;;;;5072714;28;20530;-66
2021/05/19 04:05:01;;;;;;;4.60;3.13;;;9.60;99.90;;;;;;5072081;28;20439;-66
2021/05/19 04:07:27;;;;;;;4.40;3.70;;;9.60;99.90;;;;;;5072554;28;20523;-66
2021/05/19 04:09:54;;;;;;;5.30;3.60;;;9.60;99.90;;;;;;5072300;28;20459;-66
2021/05/19 04:12:20;;;;;;;5.07;2.90;;;9.60;99.90;;;;;;5072422;28;20592;-66
2021/05/19 04:14:47;;;;;;;4.97;3.00;;;9.70;99.90;;;;;;5072368;28;20891;-66
2021/05/19 04:17:13;;;;;;;4.90;3.17;;;9.70;99.90;;;;;;5071894;28;20825;-65
2021/05/19 04:19:41;;;;;;;3.77;2.90;;;9.70;99.90;;;;;;5071777;28;20972;-65
2021/05/19 04:22:07;;;;;;;2.97;2.40;;;9.80;99.90;;;;;;5072257;28;20443;-66
2021/05/19 04:24:34;;;;;;;5.47;3.30;;;9.80;99.90;;;;;;5072018;28;20435;-65
2021/05/19 04:27:00;;;;;;;3.80;2.90;;;9.80;99.90;;;;;;5071858;28;20541;-66
2021/05/19 04:29:26;;;;;;;5.63;3.40;;;9.80;99.90;;;;;;5071797;28;20459;-66
2021/05/19 04:31:54;;;;;;;3.53;3.00;;;9.80;99.90;;;;;;5071952;28;20532;-66
2021/05/19 04:34:20;;;;;;;3.50;2.73;;;9.90;99.90;;;;;;5072276;28;20441;-66
2021/05/19 04:36:47;;;;;;;4.50;2.93;;;9.90;99.90;;;;;;5071385;28;20469;-66
2021/05/19 04:39:13;;;;;;;4.63;3.23;;;10.00;99.90;;;;;;5071760;28;20570;-66
2021/05/19 04:41:39;;;;;;;4.13;2.73;;;10.00;99.90;;;;;;5071843;28;20522;-66
2021/05/19 04:44:06;;;;;;;6.70;3.00;;;10.00;99.90;;;;;;5071953;28;20442;-66
2021/05/19 04:46:32;;;;;;;4.10;3.47;;;10.00;99.90;;;;;;5071656;28;20553;-65
2021/05/19 04:48:59;;;;;;;4.23;3.17;;;10.10;99.90;;;;;;5071729;28;20498;-66
2021/05/19 04:51:26;;;;;;;6.70;3.33;;;10.10;99.90;;;;;;5071783;28;20451;-65
2021/05/19 04:53:53;;;;;;;4.27;3.20;;;10.10;99.90;;;;;;5071766;28;20568;-66
2021/05/19 04:56:19;;;;;;;4.90;3.50;;;10.10;99.90;;;;;;5070954;28;20438;-65
2021/05/19 04:58:46;;;;;;;3.90;2.93;;;10.00;99.90;;;;;;5070534;28;20486;-65
2021/05/19 05:01:12;;;;;;;4.40;3.23;;;10.10;99.90;;;;;;5071342;28;21012;-66
2021/05/19 05:03:38;;;;;;;6.23;3.53;;;10.10;99.90;;;;;;5071403;28;20522;-66
2021/05/19 05:06:06;;;;;;;4.73;3.77;;;10.10;99.90;;;;;;5071409;28;20528;-65
2021/05/19 05:08:32;;;;;;;3.90;3.50;;;10.10;99.90;;;;;;5070496;28;20558;-66
2021/05/19 05:10:58;;;;;;;5.60;3.20;;;10.20;99.90;;;;;;5070853;28;20462;-66
2021/05/19 05:13:25;;;;;;;4.40;3.30;;;10.30;99.90;;;;;;5084019;28;20541;-67
2021/05/19 05:15:51;;;;;;;5.13;2.77;;;10.20;99.90;;;;;;5088873;28;20529;-66
2021/05/19 05:18:18;;;;;;;4.47;3.43;;;10.30;99.90;;;;;;5087807;28;20831;-65
2021/05/19 05:20:44;;;;;;;3.13;2.70;;;10.40;99.90;;;;;;5088826;28;20554;-66
2021/05/19 05:23:11;;;;;;;3.90;3.50;;;10.50;99.90;;;;;;5089159;28;20529;-65
2021/05/19 05:25:37;;;;;;;5.20;2.90;;;10.50;99.90;;;;;;5089103;28;20851;-65
2021/05/19 05:28:04;;;;;;;3.73;3.33;;;10.60;99.90;;;;;;5085059;28;20438;-66
2021/05/19 05:30:31;;;;;;;5.90;2.90;;;10.60;99.90;;;;;;5060833;28;20486;-66
2021/05/19 05:32:57;;;;;;;3.17;2.87;;;10.70;99.90;;;;;;5061445;28;20456;-66
2021/05/19 05:35:23;;;;;;;4.20;3.67;;;10.80;99.90;;;;;;5054623;28;20484;-66
2021/05/19 05:37:50;;;;;;;3.60;3.30;;;10.90;99.90;;;;;;5061990;28;20438;-66
2021/05/19 05:40:17;;;;;;;3.60;3.27;;;10.90;99.90;;;;;;5068910;28;20479;-65
2021/05/19 05:42:43;;;;;;;3.77;3.40;;;10.90;99.90;;;;;;5068338;28;20439;-66
2021/05/19 05:45:11;;;;;;;3.30;3.00;;;10.90;99.90;;;;;;5065927;28;20447;-66
2021/05/19 05:47:37;;;;;;;6.43;3.20;;;10.90;99.90;;;;;;5061901;28;20473;-66
2021/05/19 05:50:05;;;;;;;3.40;3.10;;;10.90;99.90;;;;;;5067523;28;20978;-66
2021/05/19 05:52:31;;;;;;;3.90;3.33;;;10.90;99.90;;;;;;5066851;28;20435;-66
2021/05/19 05:54:58;;;;;;;4.07;3.77;;;10.90;99.90;;;;;;5067317;28;20443;-65
2021/05/19 05:57:25;;;;;;;4.13;3.00;;;11.00;99.90;;;;;;5066926;28;20446;-66
2021/05/19 05:59:52;;;;;;;4.90;3.57;;;11.10;99.90;;;;;;5066882;28;20535;-66
2021/05/19 06:02:18;;;;;;;5.50;3.43;;;11.10;99.90;;;;;;5058734;28;20482;-66
2021/05/19 06:04:45;;;;;;;4.27;3.00;;;11.20;99.90;;;;;;5066428;28;20440;-66
2021/05/19 06:07:11;;;;;;;4.03;3.63;;;11.30;99.90;;;;;;5062750;28;20440;-66
2021/05/19 06:09:38;;;;;;;3.80;3.40;;;11.50;99.90;;;;;;5066750;28;20455;-66
2021/05/19 06:12:05;;;;;;;4.27;3.77;;;11.50;99.90;;;;;;5066660;28;20505;-66
2021/05/19 06:14:32;;;;;;;4.43;3.50;;;11.60;99.90;;;;;;5066916;28;20939;-67
2021/05/19 06:17:02;;;;;;;4.80;4.03;;;11.50;99.90;;;;;;5065844;28;20544;-67
2021/05/19 06:19:29;;;;;;;4.90;3.80;;;11.50;99.90;;;;;;5066514;28;20482;-66
2021/05/19 06:21:55;;;;;;;4.23;3.77;;;11.50;99.90;;;;;;5066723;28;20531;-66
2021/05/19 06:24:21;;;;;;;5.10;4.27;;;11.50;99.90;;;;;;5066772;28;20557;-66
2021/05/19 06:26:48;;;;;;;6.63;4.00;;;11.40;99.90;;;;;;5066723;28;20885;-66
2021/05/19 06:29:15;;;;;;;4.53;4.10;;;11.40;99.90;;;;;;5066472;28;20490;-66
2021/05/19 06:31:42;;;;;;;3.90;3.60;;;11.40;99.90;;;;;;5066337;28;20447;-65
2021/05/19 06:34:09;;;;;;;5.10;3.93;;;11.40;99.90;;;;;;5066752;28;20522;-65
2021/05/19 06:36:37;;;;;;;4.83;4.13;;;11.60;99.90;;;;;;5066511;28;20907;-65
2021/05/19 06:39:04;;;;;;;4.97;3.70;;;12.00;99.90;;;;;;5067088;28;20533;-66
2021/05/19 06:41:31;;;;;;;4.00;3.60;;;12.20;99.90;;;;;;5066669;28;20447;-65
2021/05/19 06:43:57;;;;;;;7.73;4.40;;;12.50;99.90;;;;;;5066800;28;20485;-66
2021/05/19 06:46:25;;;;;;;7.00;3.90;;;12.80;99.90;;;;;;5066608;28;20975;-66
2021/05/19 06:48:52;;;;;;;6.70;4.00;;;13.10;99.90;;;;;;5066093;28;20451;-65
2021/05/19 06:51:19;;;;;;;4.40;3.70;;;13.20;99.90;;;;;;5066645;28;20522;-65
2021/05/19 06:53:46;;;;;;;4.90;4.00;;;13.30;99.90;;;;;;5066146;28;20526;-66
2021/05/19 06:56:13;;;;;;;6.80;3.93;;;13.10;99.90;;;;;;5072927;28;20997;-66
2021/05/19 06:58:40;;;;;;;7.13;4.00;;;12.80;99.90;;;;;;5066109;28;20450;-63
2021/05/19 07:01:06;;;;;;;5.53;4.20;;;12.60;99.90;;;;;;5066288;28;20530;-65
2021/05/19 07:03:32;;;;;;;5.97;4.23;;;12.50;99.90;;;;;;5066441;28;20447;-65
2021/05/19 07:06:00;;;;;;;5.27;4.03;;;12.40;99.90;;;;;;5066078;28;20450;-66
2021/05/19 07:08:26;;;;;;;5.13;4.00;;;12.30;99.90;;;;;;5066128;28;20459;-65
2021/05/19 07:10:52;;;;;;;4.27;3.67;;;12.30;99.90;;;;;;5066315;28;20534;-65
2021/05/19 07:13:19;;;;;;;5.00;3.77;;;12.30;99.90;;;;;;5065719;28;20442;-65
2021/05/19 07:15:51;;;;;;;16.83;4.97;;;12.30;99.90;;;;;;5066642;28;20471;-65
2021/05/19 07:18:17;;;;;;;4.07;3.60;;;12.50;99.90;;;;;;5065865;28;20620;-65
2021/05/19 07:20:43;;;;;;;5.60;3.83;;;12.60;99.90;;;;;;5067471;28;20510;-65
2021/05/19 07:23:11;;;;;;;4.13;3.73;;;12.90;99.90;;;;;;5070082;28;20533;-65
2021/05/19 07:25:37;;;;;;;5.17;3.80;;;13.40;99.90;;;;;;5069460;28;20443;-65
2021/05/19 07:28:05;;;;;;;5.07;4.10;;;13.70;99.90;;;;;;5069820;28;20441;-65
2021/05/19 07:30:31;;;;;;;5.00;3.40;;;13.90;99.90;;;;;;5069887;28;20517;-64
2021/05/19 07:32:57;;;;;;;4.10;3.70;;;14.30;99.90;;;;;;5069388;28;20435;-63
2021/05/19 07:35:24;;;;;;;4.00;3.60;;;14.60;99.90;;;;;;5069965;28;20522;-65
2021/05/19 07:37:50;;;;;;;5.27;3.50;;;15.00;99.90;;;;;;5069802;28;20478;-65
2021/05/19 07:40:17;;;;;;;4.70;3.63;;;15.10;99.90;;;;;;5069816;28;20615;-65
2021/05/19 07:42:44;;;;;;;3.80;3.40;;;14.70;99.90;;;;;;5070663;28;20530;-65
2021/05/19 07:45:11;;;;;;;4.23;3.13;;;14.00;99.90;;;;;;5069340;28;20447;-64
2021/05/19 07:47:38;;;;;;;4.73;3.60;;;13.50;99.90;;;;;;5069496;28;20549;-65
2021/05/19 07:50:05;;;;;;;5.87;3.00;;;13.30;99.90;;;;;;5069347;28;20487;-65
2021/05/19 07:52:32;;;;;;;4.10;3.17;;;12.90;99.90;;;;;;5069162;28;20584;-64
2021/05/19 07:54:58;;;;;;;4.53;3.33;;;12.80;99.90;;;;;;5069777;28;20541;-65
2021/05/19 07:57:28;;;;;;;3.33;3.00;;;12.70;99.90;;;;;;5068493;28;20876;-65
2021/05/19 08:00:07;;;;;;;4.60;2.90;;;12.70;99.90;;;;;;5069386;28;20479;-64
2021/05/19 08:02:33;;;;;;;5.63;3.80;;;12.80;99.90;;;;;;5068011;28;20521;-66
2021/05/19 08:04:59;;;;;;;6.50;3.63;;;12.90;99.90;;;;;;5067596;28;21136;-65
2021/05/19 08:07:26;;;;;;;3.87;3.10;;;13.30;99.90;;;;;;5068638;28;20465;-64
2021/05/19 08:09:52;;;;;;;4.63;3.00;;;13.50;99.90;;;;;;5068690;28;20470;-65
2021/05/19 08:12:19;;;;;;;6.47;2.90;;;13.80;99.90;;;;;;5068827;28;21007;-64
2021/05/19 08:14:46;;;;;;;5.63;3.27;;;14.00;99.90;;;;;;5068981;28;20812;-63
2021/05/19 08:17:12;;;;;;;4.57;3.27;;;13.80;99.90;;;;;;5067970;28;20465;-64
2021/05/19 08:19:39;;;;;;;4.40;3.10;;;13.60;99.90;;;;;;5068748;28;20490;-65
2021/05/19 08:22:07;;;;;;;3.83;3.10;;;13.50;99.90;;;;;;5068625;28;20538;-65
2021/05/19 08:24:33;;;;;;;5.20;2.80;;;13.50;99.90;;;;;;5068417;28;20446;-64
2021/05/19 08:27:00;;;;;;;4.17;3.10;;;13.60;99.90;;;;;;5068728;28;20454;-65
2021/05/19 08:29:26;;;;;;;4.73;3.63;;;13.60;99.90;;;;;;5068240;28;20463;-65
2021/05/19 08:31:53;;;;;;;5.93;3.73;;;13.60;99.90;;;;;;5068568;28;20457;-65
2021/05/19 08:34:20;;;;;;;4.33;3.30;;;13.60;99.90;;;;;;5068533;28;20455;-65
2021/05/19 08:36:46;;;;;;;3.73;2.70;;;13.70;99.90;;;;;;5068227;28;20530;-65
2021/05/19 08:39:12;;;;;;;4.93;3.47;;;14.20;99.90;;;;;;5068499;28;21098;-65
2021/05/19 08:41:43;;;;;;;2.37;2.17;;;14.50;99.90;;;;;;5068641;28;20447;-65
2021/05/19 08:44:10;;;;;;;5.97;2.90;;;14.50;99.90;;;;;;5068241;28;20463;-65
2021/05/19 08:46:43;;;;;;;4.63;3.10;;;14.20;99.90;;;;;;5068113;28;20818;-65
2021/05/19 08:49:11;;;;;;;4.37;3.07;;;14.10;99.90;;;;;;5067562;28;20569;-64
2021/05/19 08:51:37;;;;;;;4.87;3.07;;;14.10;99.90;;;;;;5068381;28;20447;-65
2021/05/19 08:54:06;;;;;;;4.40;3.30;;;14.10;99.90;;;;;;5067933;28;20443;-65
2021/05/19 08:56:36;;;;;;;7.27;3.27;;;14.40;99.90;;;;;;5067665;28;20972;-64
2021/05/19 08:59:04;;;;;;;4.73;3.70;;;14.50;99.90;;;;;;5068162;28;20482;-65
2021/05/19 09:01:38;;;;;;;4.20;3.80;;;14.10;99.90;;;;;;5067604;28;20945;-64
2021/05/19 09:04:06;;;;;;;4.07;3.37;;;14.00;99.90;;;;;;5086897;28;20488;-64
2021/05/19 09:06:35;;;;;;;4.70;3.20;;;14.40;99.90;;;;;;5087978;28;21007;-64
2021/05/19 09:09:27;;;;;;;4.57;3.30;;;14.60;99.90;;;;;;5087466;28;20458;-63
2021/05/19 09:12:06;;;;;;;6.20;3.70;;;14.70;99.90;;;;;;5072192;28;20456;-64
2021/05/19 09:14:35;;;;;;;4.00;2.93;;;14.40;99.90;;;;;;5087763;28;20442;-63
2021/05/19 09:17:22;;;;;;;3.00;2.50;;;14.20;99.90;;;;;;5087916;28;20545;-61
2021/05/19 09:19:51;;;;;;;4.73;2.63;;;14.20;99.90;;;;;;5088149;28;20485;-63
2021/05/19 09:22:22;;;;;;;3.57;2.97;;;14.30;99.90;;;;;;5087523;28;20885;-63
2021/05/19 09:24:49;;;;;;;4.63;2.60;;;14.40;99.90;;;;;;5088289;28;20521;-64
2021/05/19 09:27:17;;;;;;;2.87;2.00;;;14.40;99.90;;;;;;5087216;28;21183;-64
2021/05/19 09:29:48;;;;;;;11.80;3.83;;;13.90;99.90;;;;;;5087460;28;21101;-64
2021/05/19 09:32:16;;;;;;;3.33;2.30;;;14.10;99.90;;;;;;5087666;28;20538;-64
2021/05/19 09:34:44;;;;;;;6.43;2.93;;;14.40;99.90;;;;;;5075683;28;20458;-64
2021/05/19 09:37:23;;;;;;;3.53;2.00;;;14.60;99.90;;;;;;5065713;28;21016;-64
2021/05/19 09:39:53;;;;;;;4.50;3.20;;;15.10;99.90;;;;;;5059523;28;20487;-64
2021/05/19 09:42:21;;;;;;;3.23;2.43;;;15.40;99.90;;;;;;5065777;28;20550;-64
2021/05/19 09:44:49;;;;;;;4.63;2.30;;;15.70;99.90;;;;;;5062917;28;20471;-64
2021/05/19 09:47:37;;;;;;;2.30;1.50;;;15.80;99.90;;;;;;5066282;28;20451;-64
2021/05/19 09:50:05;;;;;;;2.37;1.73;;;15.50;99.90;;;;;;5067157;28;20459;-63
2021/05/19 09:52:32;;;;;;;6.83;1.93;;;16.00;99.90;;;;;;5064646;28;20666;-65
2021/05/19 09:55:05;;;;;;;2.80;1.87;;;16.60;99.90;;;;;;5066877;28;20943;-64
2021/05/19 09:57:41;;;;;;;2.70;2.03;;;17.00;99.90;;;;;;5062774;28;20889;-65
2021/05/19 10:00:11;;;;;;;3.50;2.00;;;17.00;99.90;;;;;;5063689;28;20493;-63
2021/05/19 10:02:37;;;;;;;2.90;1.20;;;17.00;99.90;;;;;;5066444;28;21075;-64
2021/05/19 10:05:15;;;;;;;2.13;1.20;;;16.70;97.60;;;;;;5057119;28;20447;-65
2021/05/19 10:07:42;;;;;;;2.03;1.10;;;17.00;98.00;;;;;;5063720;28;20536;-64
2021/05/19 10:10:09;;;;;;;2.97;1.67;;;17.40;97.50;;;;;;5061892;28;20467;-64
2021/05/19 10:12:38;;;;;;;3.33;1.30;;;17.60;96.90;;;;;;5063572;28;20535;-64
2021/05/19 10:15:12;;;;;;;3.07;1.60;;;17.80;98.80;;;;;;5061417;28;20458;-64
2021/05/19 10:17:41;;;;;;;2.90;1.50;;;17.10;98.80;;;;;;5062556;28;20454;-63
2021/05/19 10:20:12;;;;;;;2.43;1.40;;;17.10;98.00;;;;;;5067068;28;20482;-64
2021/05/19 10:22:43;;;;;;;2.60;1.40;;;17.60;98.40;;;;;;5066143;28;20447;-64
2021/05/19 10:25:32;;;;;;;2.70;1.40;;;18.10;96.80;;;;;;5066404;28;20479;-64
2021/05/19 10:28:00;;;;;;;2.80;1.20;;;18.50;97.40;;;;;;5065890;28;20466;-64
2021/05/19 10:30:38;;;;;;;2.20;1.37;;;19.00;96.30;;;;;;5066101;28;20832;-64
2021/05/19 10:33:06;;;;;;;1.93;1.17;;;19.20;96.00;;;;;;5046746;28;20487;-65
2021/05/19 10:35:34;;;;;;;3.17;1.37;;;19.60;94.40;;;;;;5057540;28;20565;-64
2021/05/19 10:38:17;;;;;;;2.10;1.30;;;19.40;93.40;;;;;;5060318;28;20455;-64
2021/05/19 10:40:51;;;;;;;2.20;1.00;;;19.40;90.00;;;;;;5064814;28;20482;-64
2021/05/19 10:43:17;;;;;;;1.80;0.87;;;19.00;87.20;;;;;;5054127;28;20452;-64
2021/05/19 10:45:55;;;;;;;3.17;1.20;;;18.80;85.20;;;;;;5065763;28;20511;-65
2021/05/19 10:48:32;;;;;;;2.77;1.40;;;19.00;90.20;;;;;;5065127;28;20534;-65
2021/05/19 10:51:25;;;;;;;2.13;1.07;;;18.80;88.10;;;;;;5064814;28;21182;-64
2021/05/19 11:00:09;;;;;;;2.60;1.40;;;19.40;89.40;;;;;;5066283;28;20485;-64
2021/05/19 11:03:13;;;;;;;5.30;1.67;;;19.40;90.20;;;;;;5069166;28;20466;-64
2021/05/19 11:06:08;;;;;;;2.27;1.17;;;19.00;88.60;;;;;;5066897;28;20455;-64
2021/05/19 11:08:35;;;;;;;3.30;1.03;;;18.80;84.70;;;;;;5055999;28;20538;-65
2021/05/19 11:11:23;;;;;;;3.93;1.10;;;18.70;83.50;;;;;;5066040;28;20599;-64
2021/05/19 11:14:06;;;;;;;2.03;0.90;;;18.80;82.40;;;;;;5062681;28;20470;-64
2021/05/19 11:16:59;;;;;;;3.17;1.10;;;19.30;82.80;;;;;;5065119;28;20537;-65
2021/05/19 11:19:31;;;;;;;4.20;1.90;;;18.90;80.80;;;;;;5057393;28;20950;-64
2021/05/19 11:21:59;;;;;;;2.27;1.37;;;18.60;81.40;;;;;;5067914;28;20824;-64
2021/05/19 11:24:27;;;;;;;2.30;1.00;;;18.50;82.00;;;;;;5071754;28;20534;-64
2021/05/19 11:26:54;;;;;;;2.60;1.10;;;18.30;79.60;;;;;;5071261;28;20475;-65
2021/05/19 11:29:22;;;;;;;2.97;1.60;;;18.30;82.20;;;;;;5067464;28;20490;-65
2021/05/19 11:31:50;;;;;;;4.37;1.00;;;18.30;81.40;;;;;;5071867;28;20974;-65
2021/05/19 11:34:19;;;;;;;2.50;1.33;;;18.90;76.60;;;;;;5072640;28;20443;-64
2021/05/19 11:36:47;;;;;;;2.40;1.03;;;19.10;80.30;;;;;;5070137;28;20482;-63
2021/05/19 11:39:33;;;;;;;2.23;1.10;;;19.40;77.10;;;;;;5068618;28;20569;-64
2021/05/19 11:42:12;;;;;;;2.40;1.37;;;19.60;79.80;;;;;;5068415;28;20486;-64
2021/05/19 11:44:41;;;;;;;4.40;1.10;;;19.90;80.80;;;;;;5060405;28;20802;-64
2021/05/19 11:47:09;;;;;;;4.30;1.60;;;20.30;83.80;;;;;;5052279;28;20878;-64
2021/05/19 11:49:36;;;;;;;2.87;1.20;;;20.20;78.60;;;;;;5052198;28;20470;-65
2021/05/19 11:52:03;;;;;;;5.77;1.30;;;20.10;79.30;;;;;;5052232;28;20452;-64
2021/05/19 11:54:30;;;;;;;2.63;1.00;;;20.60;78.80;;;;;;5062679;28;20454;-65
2021/05/19 11:56:59;;;;;;;2.87;1.17;;;20.80;75.80;;;;;;5063474;28;20452;-64
2021/05/19 11:59:29;;;;;;;2.27;0.93;;;20.80;74.30;;;;;;5070562;28;20517;-64
2021/05/19 12:02:00;;;;;;;6.47;1.50;;;20.60;74.60;;;;;;5067689;28;20454;-65
2021/05/19 12:04:29;;;;;;;2.30;1.30;;;20.90;76.10;;;;;;5057513;28;20975;-65
2021/05/19 12:06:56;;;;;;;2.37;1.10;;;20.70;74.00;;;;;;5060002;28;20890;-66
2021/05/19 12:09:23;;;;;;;2.13;0.90;;;20.50;73.90;;;;;;5067282;28;20463;-66
2021/05/19 12:11:50;;;;;;;3.60;1.20;;;20.10;75.80;;;;;;5065144;28;20454;-66
2021/05/19 12:14:18;;;;;;;2.83;1.50;;;20.10;74.90;;;;;;5065579;28;20453;-66
2021/05/19 12:16:46;;;;;;;2.30;1.13;;;20.40;73.30;;;;;;5067540;28;20451;-67
2021/05/19 12:19:15;;;;;;;4.17;1.90;;;20.80;74.10;;;;;;5071553;28;20498;-65
2021/05/19 12:21:43;;;;;;;4.73;1.10;;;21.40;72.50;;;;;;5071694;28;20861;-66
2021/05/19 12:24:11;;;;;;;2.73;1.10;;;21.10;67.30;;;;;;5071451;28;20447;-66
2021/05/19 12:26:39;;;;;;;3.93;1.00;;;21.50;65.50;;;;;;5066467;28;20453;-62
2021/05/19 12:29:28;;;;;;;3.30;0.80;;;21.20;65.00;;;;;;5061993;28;20835;-66
2021/05/19 12:32:17;;;;;;;2.50;1.27;;;21.60;59.40;;;;;;5062657;28;20539;-65
2021/05/19 12:34:45;;;;;;;2.10;1.00;;;21.60;61.80;;;;;;5063066;28;20532;-65
2021/05/19 12:37:12;;;;;;;2.70;1.10;;;22.10;62.80;;;;;;5069213;28;20517;-66
2021/05/19 12:39:43;;;;;;;1.87;0.93;;;22.20;60.90;;;;;;5071390;28;20486;-66
2021/05/19 12:42:17;;;;;;;3.00;1.00;;;22.00;61.40;;;;;;5067308;28;20731;-65
2021/05/19 12:44:44;;;;;;;1.90;0.83;;;21.90;58.70;;;;;;5071499;28;20542;-66
2021/05/19 12:47:13;;;;;;;2.40;1.13;;;21.70;61.40;;;;;;5070678;28;20451;-66
2021/05/19 12:49:41;;;;;;;2.70;1.30;;;21.50;62.80;;;;;;5065982;28;20463;-66
2021/05/19 12:52:15;;;;;;;2.10;1.17;;;21.60;63.80;;;;;;5067076;28;21131;-66
2021/05/19 12:54:42;;;;;;;2.67;1.20;;;21.90;61.80;;;;;;5064823;28;20531;-66
2021/05/19 12:57:10;;;;;;;4.03;1.37;;;21.80;63.20;;;;;;5068734;28;20453;-65
2021/05/19 12:59:55;;;;;;;2.43;1.20;;;21.60;66.30;;;;;;5070614;28;20502;-65
2021/05/19 13:02:23;;;;;;;2.43;1.13;;;21.80;62.40;;;;;;5068760;28;20964;-66
2021/05/19 13:04:51;;;;;;;2.90;1.37;;;22.20;62.10;;;;;;5068412;28;20538;-66
2021/05/19 13:07:20;;;;;;;5.27;1.40;;;22.30;62.20;;;;;;5070138;28;20473;-65